FW2691 Weather Reports


Display with metric or nautical units.
time (UTC)temp
F
wind
direction
speed
MPH
gust
MPH
rain 1hr
in
rain 24hr
in
rain mn
in
humidity
%
barometer
mb
20230206154803 29 26 1.0 3.0 0.00 0.00 0.00 91 968.1
20230206154705 30 26 1.0 3.0 0.00 0.00 0.00 91 965.1
20230206154304 29 33 0.0 3.0 0.00 0.00 0.00 91 968.1
20230206154206 30 33 1.0 7.0 0.00 0.00 0.00 91 965.1
20230206153759 29 34 1.0 5.0 0.00 0.00 0.00 90 968.1
20230206153709 30 34 1.0 7.0 0.00 0.00 0.00 91 965.0
20230206153303 29 322 1.0 6.0 0.00 0.00 0.00 90 968.1
20230206153207 30 324 1.0 7.0 0.00 0.00 0.00 91 965.0
20230206152803 30 329 1.0 6.0 0.00 0.00 0.00 90 968.1
20230206152705 30 320 1.0 6.0 0.00 0.00 0.00 91 965.0
20230206152301 30 334 0.0 4.0 0.00 0.00 0.00 90 968.1
20230206152208 30 336 1.0 6.0 0.00 0.00 0.00 91 965.0
20230206152032 30 339 0.0 4.0 0.00 0.00 0.00 90 968.1
20230206151618 30 47 0.0 4.0 0.00 0.00 0.00 90 968.0
20230206151205 30 47 1.0 3.0 0.00 0.00 0.00 91 965.0
20230206150801 30 349 0.0 3.0 0.00 0.00 0.00 90 968.0
20230206150705 30 351 1.0 6.0 0.00 0.00 0.00 91 965.0
20230206150531 30 349 0.0 3.0 0.00 0.00 0.00 90 967.9
20230206150205 30 351 1.0 6.0 0.00 0.00 0.00 91 964.9
20230206145800 30 345 1.0 5.0 0.00 0.00 0.00 90 968.0
20230206145705 30 348 1.0 6.0 0.00 0.00 0.00 91 964.9
20230206145301 30 23 1.0 5.0 0.00 0.00 0.00 90 968.0
20230206145206 30 47 1.0 5.0 0.00 0.00 0.00 91 964.9
20230206144801 30 48 0.0 4.0 0.00 0.00 0.00 90 968.0
20230206144708 30 47 1.0 8.0 0.00 0.00 0.00 90 965.0
20230206144303 30 31 0.0 6.0 0.00 0.00 0.00 90 967.9
20230206144205 30 32 1.0 8.0 0.00 0.00 0.00 90 965.0
20230206143804 30 328 1.0 6.0 0.00 0.00 0.00 90 967.9
20230206143705 30 332 1.0 8.0 0.00 0.00 0.00 90 964.9
20230206143256 30 43 1.0 3.0 0.00 0.00 0.00 90 967.9
20230206143206 30 6 0.0 8.0 0.00 0.00 0.00 90 964.9
20230206142758 30 33 0.0 4.0 0.00 0.00 0.00 90 967.8
20230206142705 30 33 1.0 8.0 0.00 0.00 0.00 91 964.8
20230206142259 30 15 1.0 9.0 0.00 0.00 0.00 90 967.8
20230206142206 30 319 1.0 8.0 0.00 0.00 0.00 90 964.9
20230206141800 30 55 4.0 9.0 0.00 0.00 0.00 90 968.0
20230206141705 30 17 1.0 6.0 0.00 0.00 0.00 91 965.0
20230206141301 30 352 0.0 5.0 0.00 0.00 0.00 90 967.9
20230206141208 30 353 1.0 6.0 0.00 0.00 0.00 90 964.9
20230206140800 30 13 1.0 5.0 0.00 0.00 0.00 90 967.9
20230206140302 30 47 1.0 6.0 0.00 0.00 0.00 90 967.9
20230206140206 30 8 1.0 6.0 0.00 0.00 0.00 91 965.0
20230206135759 30 9 3.0 6.0 0.00 0.00 0.00 91 967.8
20230206135705 30 41 1.0 6.0 0.00 0.00 0.00 91 964.8
20230206135301 30 327 1.0 5.0 0.00 0.00 0.00 91 967.7
20230206134759 30 344 0.0 6.0 0.00 0.00 0.00 91 967.7
20230206134705 31 44 2.0 6.0 0.00 0.00 0.00 91 964.9
20230206134530 30 51 4.0 6.0 0.00 0.00 0.00 91 967.8
20230206134205 31 65 1.0 7.0 0.00 0.00 0.00 91 965.0
20230206133758 30 58 2.0 5.0 0.00 0.00 0.00 91 967.8
20230206133302 30 33 2.0 9.0 0.00 0.00 0.00 91 967.7
20230206133205 31 33 3.0 9.0 0.00 0.00 0.00 91 964.8
20230206132758 30 315 3.0 9.0 0.00 0.00 0.00 91 967.7
20230206132706 31 326 2.0 6.0 0.00 0.00 0.00 91 964.8
20230206132301 30 315 0.0 4.0 0.00 0.00 0.00 90 967.7
20230206132206 31 318 1.0 5.0 0.00 0.00 0.00 91 964.9
20230206131758 31 334 1.0 4.0 0.00 0.00 0.00 90 967.7
20230206131300 31 54 2.0 4.0 0.00 0.00 0.00 91 967.7
20230206131206 31 53 2.0 6.0 0.00 0.00 0.00 91 964.9
20230206130800 31 70 2.0 5.0 0.00 0.00 0.00 90 967.7
20230206130708 31 64 2.0 7.0 0.00 0.00 0.00 92 964.9
20230206130257 31 10 2.0 5.0 0.00 0.00 0.00 91 967.6
20230206130205 31 349 2.0 10.0 0.00 0.00 0.00 92 964.8
20230206125759 30 352 1.0 5.0 0.00 0.00 0.00 91 967.5
20230206125258 30 328 2.0 10.0 0.00 0.00 0.00 91 967.5
20230206125209 31 339 2.0 10.0 0.00 0.00 0.00 92 964.7
20230206124757 30 334 2.0 10.0 0.00 0.00 0.00 92 967.5
20230206124258 30 310 3.0 6.0 0.00 0.00 0.00 92 967.5
20230206123759 30 321 2.0 5.0 0.00 0.00 0.00 92 967.6
20230206123708 31 325 1.0 6.0 0.00 0.00 0.00 93 964.9
20230206123257 30 332 0.0 2.0 0.00 0.00 0.00 92 967.7
20230206123206 31 334 0.0 1.0 0.00 0.00 0.00 92 965.0
20230206123025 30 332 0.0 1.0 0.00 0.00 0.00 92 967.7
20230206122254 30 332 0.0 2.0 0.00 0.00 0.00 92 967.7
20230206122208 30 334 0.0 6.0 0.00 0.00 0.00 92 964.9
20230206121757 30 331 0.0 5.0 0.00 0.00 0.00 92 967.6
20230206121706 30 334 1.0 6.0 0.00 0.00 0.00 92 964.8
20230206121533 30 327 2.0 5.0 0.00 0.00 0.00 91 967.7
20230206121209 30 329 1.0 9.0 0.00 0.00 0.00 92 964.8
20230206120759 30 2 0.0 7.0 0.00 0.00 0.00 91 967.6
20230206120705 30 3 3.0 9.0 0.00 0.00 0.00 92 964.8
20230206120300 30 3 1.0 9.0 0.00 0.00 0.00 91 967.7
20230206120205 30 11 4.0 9.0 0.00 0.00 0.00 92 964.9
20230206115756 30 328 4.0 9.0 0.00 0.00 0.00 91 967.9
20230206115706 30 332 3.0 8.0 0.00 0.00 0.00 92 965.0
20230206115528 30 327 2.0 7.0 0.00 0.00 0.00 91 967.9
20230206115206 30 327 3.0 8.0 0.00 0.00 0.00 92 965.0
20230206114756 30 317 4.0 7.0 0.00 0.00 0.00 92 968.0
20230206114525 30 335 5.0 7.0 0.00 0.00 0.00 91 968.1
20230206114205 30 322 4.0 9.0 0.00 0.00 0.00 92 965.4
20230206113757 30 328 1.0 7.0 0.00 0.00 0.00 92 968.2
20230206113709 30 330 3.0 9.0 0.00 0.00 0.00 93 965.3
20230206113531 30 327 3.0 9.0 0.00 0.00 0.00 92 968.0
20230206113205 30 318 3.0 9.0 0.00 0.00 0.00 93 965.3
20230206112759 29 318 6.0 9.0 0.00 0.00 0.00 92 968.1
20230206112705 30 323 3.0 8.0 0.00 0.00 0.00 92 965.4
20230206112256 29 328 3.0 6.0 0.00 0.00 0.00 92 968.1
20230206112206 30 332 3.0 8.0 0.00 0.00 0.00 92 965.3
20230206111755 29 338 2.0 7.0 0.00 0.00 0.00 92 968.3
20230206111254 29 321 4.0 12.0 0.00 0.00 0.00 92 968.3
20230206111205 30 328 3.0 12.0 0.00 0.00 0.00 92 965.4
20230206110752 29 329 2.0 12.0 0.00 0.00 0.00 92 968.4
20230206110705 30 334 3.0 12.0 0.00 0.00 0.00 92 965.4
20230206110259 29 328 4.0 9.0 0.00 0.00 0.00 92 968.5
20230206110205 30 328 3.0 9.0 0.00 0.00 0.00 93 965.5
20230206105753 29 321 2.0 9.0 0.00 0.00 0.00 92 968.6
20230206105705 30 322 3.0 9.0 0.00 0.00 0.00 92 965.5
20230206105255 29 13 1.0 7.0 0.00 0.00 0.00 92 968.6
20230206105205 30 13 3.0 9.0 0.00 0.00 0.00 92 965.5
20230206104755 29 328 3.0 9.0 0.00 0.00 0.00 92 968.7
20230206104705 30 329 3.0 9.0 0.00 0.00 0.00 92 965.6
20230206104530 29 327 4.0 9.0 0.00 0.00 0.00 92 968.8
20230206104206 30 324 3.0 7.0 0.00 0.00 0.00 92 965.6
20230206103753 29 313 2.0 6.0 0.00 0.00 0.00 92 968.6
20230206103705 30 314 2.0 12.0 0.00 0.00 0.00 92 965.6
20230206103259 29 315 3.0 12.0 0.00 0.00 0.00 92 968.7
20230206103208 30 323 4.0 12.0 0.00 0.00 0.00 92 965.6
20230206102306 29 334 6.0 12.0 0.00 0.00 0.00 91 968.7
20230206102205 29 304 7.0 11.0 0.00 0.00 0.00 92 965.6
20230206101705 29 319 6.0 11.0 0.00 0.00 0.00 91 965.8
20230206101256 29 327 6.0 11.0 0.00 0.00 0.00 91 969.0
20230206101041 29 315 3.0 9.0 0.00 0.00 0.00 91 969.0
20230206100706 29 322 4.0 11.0 0.00 0.00 0.00 91 966.0
20230206100257 29 315 5.0 9.0 0.00 0.00 0.00 90 969.1
20230206095755 29 328 5.0 11.0 0.00 0.00 0.00 90 969.0
20230206095705 29 303 6.0 13.0 0.00 0.00 0.00 90 966.0
20230206095255 29 328 6.0 11.0 0.00 0.00 0.00 89 969.0
20230206095209 29 331 5.0 13.0 0.00 0.00 0.00 89 966.0
20230206094754 29 322 3.0 13.0 0.00 0.00 0.00 89 969.0
20230206094706 29 322 4.0 13.0 0.00 0.00 0.00 89 966.0
20230206094255 29 311 7.0 13.0 0.00 0.00 0.00 88 969.0
20230206094205 29 326 2.0 6.0 0.00 0.00 0.00 88 966.0
20230206093705 29 330 1.0 4.0 0.00 0.00 0.00 88 966.0
20230206093250 29 315 1.0 4.0 0.00 0.00 0.00 87 969.1
20230206093205 29 319 1.0 8.0 0.00 0.00 0.00 88 966.1
20230206092749 29 315 0.0 7.0 0.00 0.00 0.00 87 969.1
20230206092706 29 319 2.0 9.0 0.00 0.00 0.00 87 966.1
20230206092250 29 314 1.0 9.0 0.00 0.00 0.00 87 969.2
20230206092206 29 316 3.0 9.0 0.00 0.00 0.00 87 966.1
20230206092021 29 322 4.0 9.0 0.00 0.00 0.00 86 969.2
20230206091705 29 329 3.0 9.0 0.00 0.00 0.00 87 966.2
20230206091206 29 299 2.0 7.0 0.00 0.00 0.00 87 966.2
20230206090706 29 328 1.0 4.0 0.00 0.00 0.00 87 966.2
20230206090252 29 318 0.0 4.0 0.00 0.00 0.00 87 969.3
20230206090209 29 321 1.0 4.0 0.00 0.00 0.00 87 966.4
20230206085748 29 318 1.0 4.0 0.00 0.00 0.00 86 969.4
20230206085705 29 321 1.0 4.0 0.00 0.00 0.00 87 966.4
20230206085253 29 318 1.0 4.0 0.00 0.00 0.00 87 969.3
20230206085206 29 301 1.0 3.0 0.00 0.00 0.00 87 966.3
20230206084749 28 297 1.0 3.0 0.00 0.00 0.00 87 969.3
20230206084705 29 301 1.0 3.0 0.00 0.00 0.00 87 966.3
20230206083749 28 305 0.0 3.0 0.00 0.00 0.00 87 969.5
20230206083705 28 309 1.0 3.0 0.00 0.00 0.00 87 966.5
20230206083250 28 305 1.0 3.0 0.00 0.00 0.00 87 969.6
20230206083205 28 309 0.0 8.0 0.00 0.00 0.00 87 966.5
20230206082749 28 305 0.0 6.0 0.00 0.00 0.00 87 969.6
20230206082706 28 309 2.0 8.0 0.00 0.00 0.00 87 966.7
20230206082248 28 305 1.0 7.0 0.00 0.00 0.00 87 969.8
20230206082206 28 309 2.0 8.0 0.00 0.00 0.00 87 966.8
20230206081753 28 317 3.0 7.0 0.00 0.00 0.00 87 969.8
20230206081705 28 320 3.0 7.0 0.00 0.00 0.00 87 966.8
20230206081250 27 321 3.0 6.0 0.00 0.00 0.00 87 969.8
20230206081205 28 322 3.0 8.0 0.00 0.00 0.00 87 966.9
20230206080746 27 294 1.0 6.0 0.00 0.00 0.00 87 969.8
20230206080705 28 299 3.0 8.0 0.00 0.00 0.00 88 966.8
20230206080520 27 325 4.0 6.0 0.00 0.00 0.00 87 969.7
20230206080206 27 327 2.0 4.0 0.00 0.00 0.00 88 966.7
20230206075748 27 298 1.0 4.0 0.00 0.00 0.00 88 969.8
20230206075705 27 302 1.0 4.0 0.00 0.00 0.00 88 966.8
20230206075247 27 294 1.0 4.0 0.00 0.00 0.00 88 969.7
20230206075209 27 299 1.0 3.0 0.00 0.00 0.00 88 966.7
20230206075024 27 300 0.0 2.0 0.00 0.00 0.00 88 969.8
20230206074705 27 303 1.0 3.0 0.00 0.00 0.00 88 966.8
20230206074247 27 300 2.0 3.0 0.00 0.00 0.00 88 969.7
20230206073751 27 260 2.0 3.0 0.00 0.00 0.00 88 969.7
20230206073705 27 266 1.0 3.0 0.00 0.00 0.00 89 966.7
20230206073248 27 255 2.0 3.0 0.00 0.00 0.00 88 969.8
20230206073205 27 261 1.0 3.0 0.00 0.00 0.00 88 966.7
20230206073023 27 260 2.0 3.0 0.00 0.00 0.00 88 969.7
20230206072706 27 266 1.0 3.0 0.00 0.00 0.00 88 966.6
20230206072247 27 274 1.0 3.0 0.00 0.00 0.00 88 969.7
20230206072205 27 280 1.0 4.0 0.00 0.00 0.00 88 966.7
20230206071747 27 277 0.0 2.0 0.00 0.00 0.00 89 969.7
20230206071706 27 282 1.0 4.0 0.00 0.00 0.00 88 966.6
20230206071248 27 277 1.0 4.0 0.00 0.00 0.00 88 969.6
20230206070746 27 277 2.0 4.0 0.00 0.00 0.00 89 969.7
20230206070247 27 284 1.0 3.0 0.00 0.00 0.00 89 969.7
20230206070209 27 289 1.0 4.0 0.00 0.00 0.00 89 966.8
20230206065748 27 284 0.0 4.0 0.00 0.00 0.00 89 969.8
20230206065705 27 289 1.0 4.0 0.00 0.00 0.00 89 966.8
20230206065521 27 284 0.0 4.0 0.00 0.00 0.00 89 969.9
20230206065209 27 289 1.0 3.0 0.00 0.00 0.00 89 967.0
20230206064749 27 325 1.0 3.0 0.00 0.00 0.00 90 969.8
20230206064705 27 328 1.0 3.0 0.00 0.00 0.00 89 966.9
20230206064248 27 325 1.0 3.0 0.00 0.00 0.00 90 969.9
20230206064208 27 328 1.0 4.0 0.00 0.00 0.00 90 967.0
20230206063746 27 325 1.0 4.0 0.00 0.00 0.00 90 969.9
20230206063705 27 328 1.0 6.0 0.00 0.00 0.00 90 967.0
20230206063249 27 325 0.0 5.0 0.00 0.00 0.00 90 970.0
20230206063206 27 328 2.0 6.0 0.00 0.00 0.00 90 966.9
20230206062747 27 325 1.0 5.0 0.00 0.00 0.00 91 970.0
20230206062705 27 328 2.0 6.0 0.00 0.00 0.00 90 967.1
20230206062247 26 320 1.0 5.0 0.00 0.00 0.00 91 970.0
20230206062205 27 322 2.0 6.0 0.00 0.00 0.00 91 966.9
20230206061749 26 325 2.0 5.0 0.00 0.00 0.00 92 969.9
20230206061706 27 328 1.0 4.0 0.00 0.00 0.00 91 967.0
20230206061246 26 345 0.0 3.0 0.00 0.00 0.00 92 969.9
20230206061206 27 22 0.0 4.0 0.00 0.00 0.00 91 966.9
20230206060746 26 22 0.0 3.0 0.00 0.00 0.00 92 969.9
20230206060705 27 22 1.0 4.0 0.00 0.00 0.00 92 966.9
20230206060248 26 260 1.0 3.0 0.00 0.00 0.00 92 969.9
20230206060205 26 266 1.0 4.0 0.00 0.00 0.00 92 966.9
20230206055747 26 260 2.0 3.0 0.00 0.00 0.00 92 969.9
20230206055705 27 265 0.0 2.0 0.00 0.00 0.00 92 966.8
20230206055251 26 101 0.0 2.0 0.00 0.00 0.00 92 970.0
20230206055018 26 211 0.0 2.0 0.00 0.00 0.00 92 970.0
20230206054519 26 211 0.0 2.0 0.00 0.00 0.00 92 970.0
20230206054205 26 206 0.0 3.0 0.00 0.00 0.00 92 966.8
20230206053749 26 211 1.0 3.0 0.00 0.00 0.00 92 969.9
20230206053706 27 206 1.0 3.0 0.00 0.00 0.00 92 966.9
20230206053249 26 211 0.0 3.0 0.00 0.00 0.00 92 969.9
20230206053206 26 206 1.0 3.0 0.00 0.00 0.00 92 966.9
20230206052746 26 260 1.0 3.0 0.00 0.00 0.00 92 969.9
20230206052706 26 306 1.0 3.0 0.00 0.00 0.00 92 966.9
20230206052247 26 15 1.0 2.0 0.00 0.00 0.00 92 969.9
20230206052208 26 15 1.0 2.0 0.00 0.00 0.00 92 966.8
20230206051746 26 15 1.0 1.0 0.00 0.00 0.00 92 969.9
20230206051706 26 15 1.0 1.0 0.00 0.00 0.00 92 966.8
20230206051524 26 15 0.0 1.0 0.00 0.00 0.00 92 969.7
20230206051205 26 15 0.0 1.0 0.00 0.00 0.00 92 966.7
20230206050747 26 15 0.0 1.0 0.00 0.00 0.00 93 970.0
20230206050705 26 15 0.0 2.0 0.00 0.00 0.00 92 966.9
20230206050245 26 15 0.0 2.0 0.00 0.00 0.00 93 970.0
20230206050205 26 15 0.0 2.0 0.00 0.00 0.00 92 966.9
20230206045747 26 15 0.0 2.0 0.00 0.00 0.00 93 969.9
20230206045706 26 15 0.0 2.0 0.00 0.00 0.00 92 966.8
20230206045246 26 15 1.0 2.0 0.00 0.00 0.00 93 970.0
20230206045205 26 15 1.0 4.0 0.00 0.00 0.00 92 967.0
20230206044751 26 15 0.0 2.0 0.00 0.00 0.00 93 970.0
20230206044705 26 15 1.0 4.0 0.00 0.00 0.00 92 967.0
20230206044248 26 15 1.0 3.0 0.00 0.00 0.00 93 969.9
20230206043744 26 16 1.0 3.0 0.00 0.00 0.00 93 970.2
20230206043705 26 18 0.0 3.0 0.00 0.00 0.00 93 967.1
20230206043242 26 17 0.0 2.0 0.00 0.00 0.00 93 970.2
20230206043208 26 18 0.0 3.0 0.00 0.00 0.00 92 967.1
20230206042744 26 17 0.0 2.0 0.00 0.00 0.00 93 970.1
20230206042705 26 18 1.0 3.0 0.00 0.00 0.00 93 967.1
20230206042521 26 17 1.0 2.0 0.00 0.00 0.00 93 969.9
20230206042205 26 18 1.0 3.0 0.00 0.00 0.00 93 966.9
20230206041745 26 17 0.0 2.0 0.00 0.00 0.00 93 969.9
20230206041705 26 18 0.0 4.0 0.00 0.00 0.00 93 966.9
20230206041524 26 17 0.0 2.0 0.00 0.00 0.00 93 969.9
20230206041206 26 18 0.0 4.0 0.00 0.00 0.00 93 966.9
20230206041032 26 17 0.0 3.0 0.00 0.00 0.00 93 969.8
20230206040245 26 17 2.0 4.0 0.00 0.00 0.00 93 969.9
20230206040206 26 18 1.0 5.0 0.00 0.00 0.00 93 966.9
20230206035743 26 16 0.0 4.0 0.00 0.00 0.00 93 969.9
20230206035705 26 16 1.0 4.0 0.00 0.00 0.00 93 966.9
20230206035250 26 317 0.0 4.0 0.00 0.00 0.00 93 969.9
20230206034743 25 317 1.0 4.0 0.00 0.00 0.00 93 970.1
20230206034705 26 320 1.0 4.0 0.00 0.00 0.00 94 966.9
20230206034247 25 300 1.0 2.0 0.00 0.00 0.00 93 969.9
20230206034205 26 301 0.0 0.0 0.00 0.00 0.00 93 966.9
20230206034015 25 242 0.0 0.0 0.00 0.00 0.00 93 970.0
20230206033706 26 248 0.0 0.0 0.00 0.00 0.00 94 966.9
20230206033513 25 242 0.0 0.0 0.00 0.00 0.00 93 969.9
20230206033206 25 248 0.0 0.0 0.00 0.00 0.00 94 966.8
20230206032745 25 242 0.0 0.0 0.00 0.00 0.00 93 969.9
20230206032705 25 248 0.0 0.0 0.00 0.00 0.00 94 966.8
20230206032244 25 242 0.0 0.0 0.00 0.00 0.00 93 969.9
20230206032205 25 248 0.0 0.0 0.00 0.00 0.00 94 966.8
20230206031743 25 242 0.0 0.0 0.00 0.00 0.00 93 969.9
20230206031705 25 248 0.0 0.0 0.00 0.00 0.00 94 966.8
20230206031241 24 242 0.0 0.0 0.00 0.00 0.00 93 969.9
20230206031205 25 248 0.0 0.0 0.00 0.00 0.00 93 966.8
20230206030746 24 242 0.0 0.0 0.00 0.00 0.00 93 970.0
20230206030706 25 248 0.0 0.0 0.00 0.00 0.00 93 966.9
20230206030245 24 242 0.0 0.0 0.00 0.00 0.00 93 970.1
20230206030206 25 248 0.0 0.0 0.00 0.00 0.00 93 967.0
20230206025743 24 242 0.0 0.0 0.00 0.00 0.00 93 970.2
20230206025705 24 248 0.0 0.0 0.00 0.00 0.00 93 967.1
20230206025206 24 248 0.0 0.0 0.00 0.00 0.00 93 967.1
20230206024742 24 242 0.0 0.0 0.00 0.00 0.00 93 970.4
20230206024708 24 248 0.0 0.0 0.00 0.00 0.00 93 967.2
20230206024239 23 242 0.0 0.0 0.00 0.00 0.00 93 970.4
20230206024205 24 248 0.0 0.0 0.00 0.00 0.00 93 967.3
20230206023739 23 242 0.0 0.0 0.00 0.00 0.00 93 970.4
20230206023705 24 248 0.0 0.0 0.00 0.00 0.00 93 967.3
20230206023239 23 242 0.0 0.0 0.00 0.00 0.00 93 970.3
20230206023209 24 248 0.0 0.0 0.00 0.00 0.00 93 967.3
20230206023012 23 242 0.0 0.0 0.00 0.00 0.00 93 970.3
20230206022242 23 242 0.0 0.0 0.00 0.00 0.00 93 970.3
20230206022205 24 248 0.0 0.0 0.00 0.00 0.00 93 967.3
20230206021741 23 242 0.0 0.0 0.00 0.00 0.00 93 970.4
20230206021705 24 248 0.0 0.0 0.00 0.00 0.00 93 967.3
20230206021242 23 242 0.0 0.0 0.00 0.00 0.00 93 970.3
20230206021208 23 248 0.0 0.0 0.00 0.00 0.00 93 967.3
20230206020744 23 242 0.0 0.0 0.00 0.00 0.00 93 970.4
20230206020705 23 248 0.0 0.0 0.00 0.00 0.00 93 967.4
20230206020239 23 242 0.0 0.0 0.00 0.00 0.00 93 970.6
20230206020205 23 248 0.0 0.0 0.00 0.00 0.00 93 967.6
20230206015736 23 242 0.0 0.0 0.00 0.00 0.00 93 970.6
20230206015706 23 248 0.0 0.0 0.00 0.00 0.00 93 967.5
20230206015208 23 248 0.0 0.0 0.00 0.00 0.00 93 967.3
20230206014740 23 242 0.0 0.0 0.00 0.00 0.00 93 970.3
20230206014705 23 248 0.0 0.0 0.00 0.00 0.00 93 967.4
20230206014241 22 242 0.0 0.0 0.00 0.00 0.00 93 970.4
20230206014205 23 248 0.0 1.0 0.00 0.00 0.00 93 967.5
20230206013742 22 242 0.0 0.0 0.00 0.00 0.00 93 970.5
20230206013705 23 248 0.0 1.0 0.00 0.00 0.00 93 967.5
20230206013522 22 242 0.0 0.0 0.00 0.00 0.00 93 970.5
20230206013206 23 248 0.0 1.0 0.00 0.00 0.00 93 967.5
20230206012739 22 225 0.0 0.0 0.00 0.00 0.00 93 970.4
20230206012705 23 233 0.0 1.0 0.00 0.00 0.00 93 967.6
20230206012240 22 225 0.0 0.0 0.00 0.00 0.00 93 970.5
20230206012205 23 233 0.0 1.0 0.00 0.00 0.00 93 967.6
20230206011739 22 225 0.0 0.0 0.00 0.00 0.00 93 970.6
20230206011706 23 233 0.0 2.0 0.00 0.00 0.00 93 967.6
20230206011248 22 225 0.0 1.0 0.00 0.00 0.00 93 970.5
20230206011206 22 233 0.0 3.0 0.00 0.00 0.00 93 967.6
20230206011026 22 225 0.0 3.0 0.00 0.00 0.00 93 970.5
20230206010705 22 233 0.0 3.0 0.00 0.00 0.00 93 967.5
20230206010250 22 225 0.0 3.0 0.00 0.00 0.00 93 970.4
20230206010206 22 233 1.0 3.0 0.00 0.00 0.00 93 967.4
20230206005743 22 224 1.0 3.0 0.00 0.00 0.00 93 970.3
20230206005704 22 231 1.0 3.0 0.00 0.00 0.00 93 967.4
20230206005243 22 217 0.0 2.0 0.00 0.00 0.00 93 970.4
20230206005205 22 224 0.0 3.0 0.00 0.00 0.00 93 967.5
20230206004742 22 217 1.0 2.0 0.00 0.00 0.00 93 970.3
20230206004705 22 224 0.0 0.0 0.00 0.00 0.00 93 967.3
20230206004239 22 15 0.0 0.0 0.00 0.00 0.00 93 970.3
20230206004205 22 16 0.0 0.0 0.00 0.00 0.00 93 967.3
20230206003739 22 15 0.0 0.0 0.00 0.00 0.00 93 970.4
20230206003705 22 16 0.0 0.0 0.00 0.00 0.00 93 967.4
20230206003237 22 15 0.0 0.0 0.00 0.00 0.00 93 970.4
20230206003206 22 16 0.0 0.0 0.00 0.00 0.00 93 967.4
20230206003010 21 15 0.0 0.0 0.00 0.00 0.00 92 970.3
20230206002705 21 16 0.0 0.0 0.00 0.00 0.00 93 967.4
20230206002240 21 15 0.0 0.0 0.00 0.00 0.00 92 970.3
20230206002205 21 16 0.0 0.0 0.00 0.00 0.00 93 967.4
20230206001738 21 15 0.0 0.0 0.00 0.00 0.00 92 970.4
20230206001705 21 16 0.0 0.0 0.00 0.00 0.00 93 967.5
20230206001240 21 15 0.0 0.0 0.00 0.00 0.00 92 970.4
20230206001209 21 16 0.0 0.0 0.00 0.00 0.00 93 967.6
20230206000737 21 15 0.0 0.0 0.00 0.00 0.00 92 970.3
20230206000240 21 15 0.0 0.0 0.00 0.00 0.00 93 970.4
20230206000211 21 16 0.0 0.0 0.00 0.00 0.00 93 967.6
20230205235737 21 15 0.0 0.0 0.00 0.00 0.00 92 970.6
20230205235705 20 16 0.0 0.0 0.00 0.00 0.00 93 967.7
20230205235239 21 15 0.0 0.0 0.00 0.00 0.00 93 970.7
20230205234737 21 15 0.0 0.0 0.00 0.00 0.00 93 970.7
20230205234705 20 16 0.0 0.0 0.00 0.00 0.00 93 967.8
20230205234238 20 15 0.0 0.0 0.00 0.00 0.00 92 970.6
20230205234204 19 16 0.0 0.0 0.00 0.00 0.00 93 967.7
20230205233738 20 15 0.0 0.0 0.00 0.00 0.00 92 970.7
20230205233705 19 16 0.0 0.0 0.00 0.00 0.00 92 967.7
20230205233239 20 15 0.0 0.0 0.00 0.00 0.00 92 970.6
20230205233205 19 16 0.0 0.0 0.00 0.00 0.00 92 967.6
20230205233008 20 15 0.0 0.0 0.00 0.00 0.00 92 970.6
20230205232705 19 16 0.0 0.0 0.00 0.00 0.00 92 967.6
20230205232237 20 15 0.0 0.0 0.00 0.00 0.00 92 970.6
20230205231735 20 15 0.0 0.0 0.00 0.00 0.00 92 970.5
20230205231705 19 16 0.0 0.0 0.00 0.00 0.00 92 967.5
20230205231238 20 15 0.0 0.0 0.00 0.00 0.00 92 970.5
20230205231205 19 16 0.0 0.0 0.00 0.00 0.00 92 967.5
20230205230736 20 15 0.0 0.0 0.00 0.00 0.00 92 970.4
20230205230705 19 16 0.0 0.0 0.00 0.00 0.00 92 967.3
20230205230238 20 15 0.0 0.0 0.00 0.00 0.00 92 970.3
20230205230205 20 16 0.0 0.0 0.00 0.00 0.00 92 967.3
20230205225741 20 15 0.0 0.0 0.00 0.00 0.00 92 970.2
20230205225239 20 15 0.0 0.0 0.00 0.00 0.00 92 970.0
20230205225205 20 16 0.0 0.0 0.00 0.00 0.00 92 967.1
20230205224735 20 15 0.0 0.0 0.00 0.00 0.00 92 970.0
20230205224237 21 15 0.0 0.0 0.00 0.00 0.00 92 969.9
20230205224206 20 16 0.0 0.0 0.00 0.00 0.00 92 967.0
20230205223206 20 16 0.0 0.0 0.00 0.00 0.00 92 967.1
20230205223003 20 15 0.0 0.0 0.00 0.00 0.00 92 970.1
20230205222706 20 16 0.0 0.0 0.00 0.00 0.00 92 967.2
20230205222206 20 16 0.0 0.0 0.00 0.00 0.00 91 967.0
20230205221705 20 16 0.0 0.0 0.00 0.00 0.00 92 966.9
20230205221206 21 16 0.0 0.0 0.00 0.00 0.00 92 966.8
20230205220706 21 16 0.0 0.0 0.00 0.00 0.00 92 966.7
20230205220235 22 15 0.0 0.0 0.00 0.00 0.00 92 969.6
20230205215733 22 15 0.0 0.0 0.00 0.00 0.00 92 969.4
20230205215706 21 16 0.0 0.0 0.00 0.00 0.00 92 966.5
20230205215234 22 15 0.0 0.0 0.00 0.00 0.00 92 969.4
20230205214732 22 15 0.0 0.0 0.00 0.00 0.00 92 969.3
20230205214705 21 16 0.0 0.0 0.00 0.00 0.00 92 966.4
20230205214234 22 15 0.0 0.0 0.00 0.00 0.00 92 969.3
20230205214208 21 16 0.0 0.0 0.00 0.00 0.00 92 966.4
20230205213733 22 15 0.0 0.0 0.00 0.00 0.00 92 969.4
20230205213232 22 15 0.0 0.0 0.00 0.00 0.00 92 969.3
20230205213007 22 15 0.0 0.0 0.00 0.00 0.00 92 969.2
20230205212705 22 16 0.0 2.0 0.00 0.00 0.00 92 966.4
20230205212231 23 15 0.0 1.0 0.00 0.00 0.00 92 969.1
20230205211732 23 15 0.0 2.0 0.00 0.00 0.00 92 969.1
20230205211706 22 16 0.0 2.0 0.00 0.00 0.00 92 966.3
20230205211511 23 15 1.0 2.0 0.00 0.00 0.00 92 969.2
20230205211206 22 16 0.0 0.0 0.00 0.00 0.00 92 966.3
20230205210735 23 15 0.0 0.0 0.00 0.00 0.00 92 969.1
20230205210705 22 16 0.0 0.0 0.00 0.00 0.00 92 966.2
20230205210235 23 15 0.0 0.0 0.00 0.00 0.00 92 969.1
20230205210206 22 16 0.0 0.0 0.00 0.00 0.00 92 966.2
20230205205735 23 15 0.0 0.0 0.00 0.00 0.00 92 969.1
20230205205706 22 16 0.0 0.0 0.00 0.00 0.00 91 966.1
20230205205510 23 15 0.0 0.0 0.00 0.00 0.00 92 969.1
20230205205213 22 16 0.0 0.0 0.00 0.00 0.00 91 966.2
20230205204742 23 15 0.0 0.0 0.00 0.00 0.00 92 969.1
20230205204705 22 16 0.0 0.0 0.00 0.00 0.00 91 966.3
20230205204208 22 16 0.0 0.0 0.00 0.00 0.00 91 966.4
20230205203735 23 15 0.0 0.0 0.00 0.00 0.00 91 969.3
20230205203706 22 16 0.0 0.0 0.00 0.00 0.00 91 966.3
20230205203233 23 15 0.0 0.0 0.00 0.00 0.00 91 969.3
20230205203206 22 16 0.0 0.0 0.00 0.00 0.00 91 966.3
20230205202734 23 15 0.0 0.0 0.00 0.00 0.00 91 969.1
20230205202705 22 16 0.0 0.0 0.00 0.00 0.00 91 966.2
20230205202506 23 15 0.0 0.0 0.00 0.00 0.00 91 969.2
20230205201731 23 15 0.0 0.0 0.00 0.00 0.00 91 969.2
20230205201235 24 15 0.0 3.0 0.00 0.00 0.00 91 969.1
20230205201208 23 16 1.0 4.0 0.00 0.00 0.00 91 966.3
20230205200734 24 15 0.0 3.0 0.00 0.00 0.00 91 969.1
20230205200705 23 16 1.0 4.0 0.00 0.00 0.00 91 966.2
20230205200235 24 17 0.0 2.0 0.00 0.00 0.00 91 969.1
20230205200208 23 18 0.0 0.0 0.00 0.00 0.00 91 966.2
20230205195732 24 17 0.0 0.0 0.00 0.00 0.00 90 969.0
20230205195705 23 18 0.0 0.0 0.00 0.00 0.00 91 966.3
20230205195232 24 17 0.0 0.0 0.00 0.00 0.00 90 969.1
20230205195206 24 18 0.0 4.0 0.00 0.00 0.00 91 966.3
20230205194726 25 17 0.0 2.0 0.00 0.00 0.00 90 969.0
20230205194706 24 18 0.0 4.0 0.00 0.00 0.00 91 966.3
20230205194229 25 17 0.0 3.0 0.00 0.00 0.00 90 968.9
20230205193729 26 17 2.0 3.0 0.00 0.00 0.00 91 968.9
20230205193705 24 18 1.0 3.0 0.00 0.00 0.00 91 966.1
20230205193229 26 43 1.0 2.0 0.00 0.00 0.00 91 968.7
20230205193210 24 43 0.0 3.0 0.00 0.00 0.00 91 966.0
20230205192729 25 43 0.0 2.0 0.00 0.00 0.00 91 968.6
20230205192232 26 43 0.0 3.0 0.00 0.00 0.00 91 968.5
20230205192205 24 43 1.0 3.0 0.00 0.00 0.00 91 965.8
20230205191736 26 44 2.0 3.0 0.00 0.00 0.00 91 968.5
20230205191235 26 86 0.0 1.0 0.00 0.00 0.00 91 968.4
20230205191206 25 85 0.0 1.0 0.00 0.00 0.00 91 965.6
20230205191002 26 86 0.0 1.0 0.00 0.00 0.00 91 968.3
20230205190705 25 85 0.0 0.0 0.00 0.00 0.00 91 965.4
20230205190232 26 86 0.0 0.0 0.00 0.00 0.00 91 968.3
20230205190206 25 85 0.0 0.0 0.00 0.00 0.00 91 965.4
20230205185734 26 86 0.0 0.0 0.00 0.00 0.00 91 968.2
20230205185233 26 86 0.0 0.0 0.00 0.00 0.00 91 968.2
20230205185206 25 85 0.0 0.0 0.00 0.00 0.00 90 965.3
20230205184731 26 86 0.0 0.0 0.00 0.00 0.00 91 968.3
20230205184706 25 85 0.0 0.0 0.00 0.00 0.00 91 965.4
20230205184501 26 86 0.0 0.0 0.00 0.00 0.00 90 968.3
20230205184205 25 85 0.0 0.0 0.00 0.00 0.00 91 965.3
20230205183730 26 86 0.0 0.0 0.00 0.00 0.00 90 968.2
20230205183705 25 85 0.0 0.0 0.00 0.00 0.00 90 965.2
20230205183230 26 86 0.0 0.0 0.00 0.00 0.00 90 968.0
20230205183209 26 85 0.0 0.0 0.00 0.00 0.00 90 965.0
20230205182734 27 86 0.0 0.0 0.00 0.00 0.00 90 968.0
20230205182705 26 85 0.0 0.0 0.00 0.00 0.00 90 965.0
20230205182227 27 86 0.0 0.0 0.00 0.00 0.00 90 968.1
20230205181727 26 86 0.0 0.0 0.00 0.00 0.00 90 968.1
20230205181708 26 85 0.0 0.0 0.00 0.00 0.00 90 965.0
20230205181228 27 86 0.0 0.0 0.00 0.00 0.00 90 968.2
20230205181208 26 85 0.0 0.0 0.00 0.00 0.00 89 965.1
20230205180726 27 86 0.0 0.0 0.00 0.00 0.00 90 968.1
20230205180706 26 85 0.0 0.0 0.00 0.00 0.00 89 965.0
20230205180230 27 86 0.0 0.0 0.00 0.00 0.00 89 968.0
20230205180206 27 85 0.0 1.0 0.00 0.00 0.00 89 965.0
20230205175731 27 86 0.0 0.0 0.00 0.00 0.00 89 967.9
20230205175230 27 86 0.0 1.0 0.00 0.00 0.00 89 967.9
20230205175205 27 85 0.0 2.0 0.00 0.00 0.00 89 965.0
20230205174728 28 86 0.0 1.0 0.00 0.00 0.00 89 968.0
20230205174706 27 85 0.0 2.0 0.00 0.00 0.00 89 965.0
20230205174228 28 88 0.0 1.0 0.00 0.00 0.00 89 968.0
20230205174205 27 85 0.0 2.0 0.00 0.00 0.00 88 965.0
20230205173725 28 88 0.0 2.0 0.00 0.00 0.00 88 968.1
20230205173705 27 85 0.0 2.0 0.00 0.00 0.00 88 965.2
20230205173227 28 88 0.0 2.0 0.00 0.00 0.00 88 968.0
20230205173205 27 85 0.0 2.0 0.00 0.00 0.00 87 965.1
20230205172730 28 88 0.0 2.0 0.00 0.00 0.00 88 968.0
20230205172500 28 88 0.0 1.0 0.00 0.00 0.00 87 967.9
20230205171958 28 88 0.0 1.0 0.00 0.00 0.00 87 967.9
20230205171459 28 88 0.0 0.0 0.00 0.00 0.00 86 968.0
20230205171209 28 86 0.0 1.0 0.00 0.00 0.00 86 965.1
20230205170728 29 88 0.0 1.0 0.00 0.00 0.00 86 967.9
20230205170706 28 86 0.0 1.0 0.00 0.00 0.00 86 965.1
20230205170227 29 88 0.0 1.0 0.00 0.00 0.00 86 967.8
20230205170206 29 86 0.0 1.0 0.00 0.00 0.00 85 965.0
20230205165728 29 89 0.0 1.0 0.00 0.00 0.00 85 967.7
20230205165705 29 87 0.0 1.0 0.00 0.00 0.00 84 965.0
20230205165223 29 89 0.0 1.0 0.00 0.00 0.00 84 967.6
20230205165206 29 87 0.0 3.0 0.00 0.00 0.00 83 964.8
20230205164956 29 89 0.0 3.0 0.00 0.00 0.00 82 967.5
20230205164227 30 89 0.0 3.0 0.00 0.00 0.00 82 967.2
20230205163725 30 89 1.0 2.0 0.00 0.00 0.00 82 967.2
20230205163706 30 87 1.0 2.0 0.00 0.00 0.00 83 964.4
20230205163229 30 89 1.0 2.0 0.00 0.00 0.00 82 967.2
20230205162727 30 91 0.0 2.0 0.00 0.00 0.00 82 967.3
20230205162206 30 88 1.0 4.0 0.00 0.00 0.00 82 964.3
20230205161229 30 91 2.0 4.0 0.00 0.00 0.00 81 966.9
20230205161206 31 88 2.0 4.0 0.00 0.00 0.00 82 964.2
20230205160705 31 97 1.0 4.0 0.00 0.00 0.00 82 964.1
20230205160455 31 99 2.0 4.0 0.00 0.00 0.00 81 966.8
20230205160205 31 96 1.0 4.0 0.00 0.00 0.00 82 963.9
20230205155724 31 96 0.0 3.0 0.00 0.00 0.00 81 966.9
20230205155705 31 93 1.0 4.0 0.00 0.00 0.00 81 964.0
20230205155223 31 95 0.0 4.0 0.00 0.00 0.00 81 966.8
20230205155205 31 93 2.0 4.0 0.00 0.00 0.00 81 964.1